sensor_id;sensor_type;location;lat;lon;timestamp;pressure;altitude;pressure_sealevel;temperature;humidity
63694;BME280;49839;51.798;10.954;2023-09-19T00:00:37;98175.97;;;17.85;nan
63694;BME280;49839;51.798;10.954;2023-09-19T00:03:06;98178.41;;;17.79;nan
63694;BME280;49839;51.798;10.954;2023-09-19T00:05:37;98179.84;;;17.73;nan
63694;BME280;49839;51.798;10.954;2023-09-19T00:08:05;98174.78;;;17.70;nan
63694;BME280;49839;51.798;10.954;2023-09-19T00:10:34;98190.53;;;17.64;nan
63694;BME280;49839;51.798;10.954;2023-09-19T00:13:03;98190.69;;;17.62;nan
63694;BME280;49839;51.798;10.954;2023-09-19T00:15:38;98202.34;;;17.61;nan
63694;BME280;49839;51.798;10.954;2023-09-19T00:18:07;98191.97;;;17.58;nan
63694;BME280;49839;51.798;10.954;2023-09-19T00:20:37;98192.84;;;17.58;nan
63694;BME280;49839;51.798;10.954;2023-09-19T00:23:05;98193.97;;;17.56;nan
63694;BME280;49839;51.798;10.954;2023-09-19T00:25:36;98198.78;;;17.52;nan
63694;BME280;49839;51.798;10.954;2023-09-19T00:28:05;98205.22;;;17.50;nan
63694;BME280;49839;51.798;10.954;2023-09-19T00:30:33;98203.84;;;17.46;nan
63694;BME280;49839;51.798;10.954;2023-09-19T00:33:01;98202.16;;;17.45;nan
63694;BME280;49839;51.798;10.954;2023-09-19T00:35:32;98204.81;;;17.45;nan
63694;BME280;49839;51.798;10.954;2023-09-19T00:38:02;98206.66;;;17.44;nan
63694;BME280;49839;51.798;10.954;2023-09-19T00:40:30;98205.81;;;17.44;nan
63694;BME280;49839;51.798;10.954;2023-09-19T00:42:59;98204.97;;;17.43;nan
63694;BME280;49839;51.798;10.954;2023-09-19T00:45:27;98207.13;;;17.40;nan
63694;BME280;49839;51.798;10.954;2023-09-19T00:47:55;98198.28;;;17.39;nan
63694;BME280;49839;51.798;10.954;2023-09-19T00:50:25;98209.06;;;17.38;nan
63694;BME280;49839;51.798;10.954;2023-09-19T00:52:55;98212.31;;;17.31;nan
63694;BME280;49839;51.798;10.954;2023-09-19T00:55:25;98209.66;;;17.31;nan
63694;BME280;49839;51.798;10.954;2023-09-19T00:57:55;98200.84;;;17.31;nan
63694;BME280;49839;51.798;10.954;2023-09-19T01:00:23;98201.16;;;17.28;nan
63694;BME280;49839;51.798;10.954;2023-09-19T01:02:51;98207.31;;;17.28;nan
63694;BME280;49839;51.798;10.954;2023-09-19T01:05:19;98208.16;;;17.29;nan
63694;BME280;49839;51.798;10.954;2023-09-19T01:07:47;98200.16;;;17.29;nan
63694;BME280;49839;51.798;10.954;2023-09-19T01:10:17;98200.31;;;17.27;nan
63694;BME280;49839;51.798;10.954;2023-09-19T01:12:54;98210.66;;;17.30;nan
63694;BME280;49839;51.798;10.954;2023-09-19T01:15:36;98207.16;;;17.30;nan
63694;BME280;49839;51.798;10.954;2023-09-19T01:18:16;98208.56;;;17.24;nan
63694;BME280;49839;51.798;10.954;2023-09-19T01:20:53;98213.75;;;17.26;nan
63694;BME280;49839;51.798;10.954;2023-09-19T01:23:29;98214.75;;;17.25;nan
63694;BME280;49839;51.798;10.954;2023-09-19T01:26:31;98224.31;;;17.18;nan
63694;BME280;49839;51.798;10.954;2023-09-19T01:29:23;98215.78;;;17.14;nan
63694;BME280;49839;51.798;10.954;2023-09-19T01:31:59;98215.38;;;17.09;nan
63694;BME280;49839;51.798;10.954;2023-09-19T01:34:43;98214.25;;;17.12;nan
63694;BME280;49839;51.798;10.954;2023-09-19T01:37:12;98211.06;;;17.08;nan
63694;BME280;49839;51.798;10.954;2023-09-19T01:39:40;98212.31;;;17.04;nan
63694;BME280;49839;51.798;10.954;2023-09-19T01:42:14;98219.63;;;17.02;nan
63694;BME280;49839;51.798;10.954;2023-09-19T01:44:53;98209.13;;;17.00;nan
63694;BME280;49839;51.798;10.954;2023-09-19T01:47:28;98212.63;;;17.01;nan
63694;BME280;49839;51.798;10.954;2023-09-19T01:50:11;98209.25;;;16.99;nan
63694;BME280;49839;51.798;10.954;2023-09-19T01:52:46;98218.22;;;16.98;nan
63694;BME280;49839;51.798;10.954;2023-09-19T01:55:16;98221.31;;;16.93;nan
63694;BME280;49839;51.798;10.954;2023-09-19T01:57:50;98222.63;;;16.89;nan
63694;BME280;49839;51.798;10.954;2023-09-19T02:00:21;98229.03;;;16.87;nan
63694;BME280;49839;51.798;10.954;2023-09-19T02:02:52;98233.84;;;16.83;nan
63694;BME280;49839;51.798;10.954;2023-09-19T02:05:22;98227.13;;;16.79;nan
63694;BME280;49839;51.798;10.954;2023-09-19T02:07:51;98235.09;;;16.79;nan
63694;BME280;49839;51.798;10.954;2023-09-19T02:10:20;98241.72;;;16.75;nan
63694;BME280;49839;51.798;10.954;2023-09-19T02:12:48;98246.31;;;16.73;nan
63694;BME280;49839;51.798;10.954;2023-09-19T02:15:16;98233.31;;;16.70;nan
63694;BME280;49839;51.798;10.954;2023-09-19T02:17:44;98246.72;;;16.68;nan
63694;BME280;49839;51.798;10.954;2023-09-19T02:20:13;98248.69;;;16.66;nan
63694;BME280;49839;51.798;10.954;2023-09-19T02:22:43;98259.78;;;16.62;nan
63694;BME280;49839;51.798;10.954;2023-09-19T02:25:11;98257.22;;;16.60;nan
63694;BME280;49839;51.798;10.954;2023-09-19T02:27:40;98257.38;;;16.59;nan
63694;BME280;49839;51.798;10.954;2023-09-19T02:30:09;98267.34;;;16.57;nan
63694;BME280;49839;51.798;10.954;2023-09-19T02:32:36;98256.97;;;16.53;nan
63694;BME280;49839;51.798;10.954;2023-09-19T02:35:07;98255.28;;;16.52;nan
63694;BME280;49839;51.798;10.954;2023-09-19T02:37:39;98253.63;;;16.51;nan
63694;BME280;49839;51.798;10.954;2023-09-19T02:40:08;98248.44;;;16.50;nan
63694;BME280;49839;51.798;10.954;2023-09-19T02:42:45;98245.22;;;16.46;nan
63694;BME280;49839;51.798;10.954;2023-09-19T02:45:16;98249.00;;;16.44;nan
63694;BME280;49839;51.798;10.954;2023-09-19T02:47:45;98257.97;;;16.43;nan
63694;BME280;49839;51.798;10.954;2023-09-19T02:50:13;98273.09;;;16.42;nan
63694;BME280;49839;51.798;10.954;2023-09-19T02:52:44;98273.94;;;16.43;nan
63694;BME280;49839;51.798;10.954;2023-09-19T02:55:14;98276.59;;;16.43;nan
63694;BME280;49839;51.798;10.954;2023-09-19T02:57:46;98280.91;;;16.44;nan
63694;BME280;49839;51.798;10.954;2023-09-19T03:00:14;98279.50;;;16.40;nan
63694;BME280;49839;51.798;10.954;2023-09-19T03:02:43;98289.59;;;16.36;nan
63694;BME280;49839;51.798;10.954;2023-09-19T03:05:13;98300.50;;;16.33;nan
63694;BME280;49839;51.798;10.954;2023-09-19T03:07:41;98296.16;;;16.32;nan
63694;BME280;49839;51.798;10.954;2023-09-19T03:10:11;98303.56;;;16.29;nan
63694;BME280;49839;51.798;10.954;2023-09-19T03:12:39;98297.41;;;16.28;nan
63694;BME280;49839;51.798;10.954;2023-09-19T03:15:07;98295.75;;;16.27;nan
63694;BME280;49839;51.798;10.954;2023-09-19T03:17:36;98305.84;;;16.23;nan
63694;BME280;49839;51.798;10.954;2023-09-19T03:20:04;98291.81;;;16.21;nan
63694;BME280;49839;51.798;10.954;2023-09-19T03:22:35;98301.75;;;16.19;nan
63694;BME280;49839;51.798;10.954;2023-09-19T03:25:03;98307.34;;;16.16;nan
63694;BME280;49839;51.798;10.954;2023-09-19T03:27:35;98320.63;;;16.16;nan
63694;BME280;49839;51.798;10.954;2023-09-19T03:30:04;98325.25;;;16.14;nan
63694;BME280;49839;51.798;10.954;2023-09-19T03:32:35;98333.38;;;16.13;nan
63694;BME280;49839;51.798;10.954;2023-09-19T03:35:03;98318.81;;;16.07;nan
63694;BME280;49839;51.798;10.954;2023-09-19T03:37:32;98333.34;;;16.03;nan
63694;BME280;49839;51.798;10.954;2023-09-19T03:40:00;98341.47;;;16.02;nan
63694;BME280;49839;51.798;10.954;2023-09-19T03:42:31;98327.47;;;16.00;nan
63694;BME280;49839;51.798;10.954;2023-09-19T03:45:00;98347.91;;;15.99;nan
63694;BME280;49839;51.798;10.954;2023-09-19T03:47:30;98341.75;;;15.98;nan
63694;BME280;49839;51.798;10.954;2023-09-19T03:49:58;98328.72;;;15.95;nan
63694;BME280;49839;51.798;10.954;2023-09-19T03:52:26;98333.34;;;15.93;nan
63694;BME280;49839;51.798;10.954;2023-09-19T03:54:53;98331.09;;;15.89;nan
63694;BME280;49839;51.798;10.954;2023-09-19T03:57:21;98340.03;;;15.88;nan
63694;BME280;49839;51.798;10.954;2023-09-19T03:59:49;98346.34;;;15.87;nan
63694;BME280;49839;51.798;10.954;2023-09-19T04:02:21;98338.50;;;15.85;nan
63694;BME280;49839;51.798;10.954;2023-09-19T04:04:50;98344.78;;;15.84;nan
63694;BME280;49839;51.798;10.954;2023-09-19T04:07:18;98344.91;;;15.83;nan
63694;BME280;49839;51.798;10.954;2023-09-19T04:09:49;98341.97;;;15.76;nan
63694;BME280;49839;51.798;10.954;2023-09-19T04:12:16;98346.44;;;15.76;nan
63694;BME280;49839;51.798;10.954;2023-09-19T04:14:44;98341.41;;;15.73;nan
63694;BME280;49839;51.798;10.954;2023-09-19T04:17:12;98346.00;;;15.70;nan
63694;BME280;49839;51.798;10.954;2023-09-19T04:19:41;98352.44;;;15.68;nan
63694;BME280;49839;51.798;10.954;2023-09-19T04:22:09;98357.72;;;15.68;nan
63694;BME280;49839;51.798;10.954;2023-09-19T04:24:37;98352.81;;;15.63;nan
63694;BME280;49839;51.798;10.954;2023-09-19T04:27:05;98359.22;;;15.61;nan
63694;BME280;49839;51.798;10.954;2023-09-19T04:29:33;98360.44;;;15.57;nan
63694;BME280;49839;51.798;10.954;2023-09-19T04:32:01;98366.59;;;15.57;nan
63694;BME280;49839;51.798;10.954;2023-09-19T04:34:31;98364.09;;;15.56;nan
63694;BME280;49839;51.798;10.954;2023-09-19T04:37:00;98367.03;;;15.53;nan
63694;BME280;49839;51.798;10.954;2023-09-19T04:39:28;98369.09;;;15.49;nan
63694;BME280;49839;51.798;10.954;2023-09-19T04:41:56;98380.00;;;15.46;nan
63694;BME280;49839;51.798;10.954;2023-09-19T04:44:25;98382.66;;;15.46;nan
63694;BME280;49839;51.798;10.954;2023-09-19T04:46:52;98380.81;;;15.47;nan
63694;BME280;49839;51.798;10.954;2023-09-19T04:49:20;98390.31;;;15.49;nan
63694;BME280;49839;51.798;10.954;2023-09-19T04:51:48;98371.03;;;15.47;nan
63694;BME280;49839;51.798;10.954;2023-09-19T04:54:17;98387.94;;;15.46;nan
63694;BME280;49839;51.798;10.954;2023-09-19T04:56:45;98388.78;;;15.47;nan
63694;BME280;49839;51.798;10.954;2023-09-19T04:59:12;98395.91;;;15.46;nan
63694;BME280;49839;51.798;10.954;2023-09-19T05:01:41;98397.69;;;15.45;nan
63694;BME280;49839;51.798;10.954;2023-09-19T05:04:09;98399.28;;;15.48;nan
63694;BME280;49839;51.798;10.954;2023-09-19T05:06:36;98391.69;;;15.43;nan
63694;BME280;49839;51.798;10.954;2023-09-19T05:09:04;98405.09;;;15.42;nan
63694;BME280;49839;51.798;10.954;2023-09-19T05:11:33;98406.78;;;15.43;nan
63694;BME280;49839;51.798;10.954;2023-09-19T05:14:01;98400.03;;;15.39;nan
63694;BME280;49839;51.798;10.954;2023-09-19T05:16:30;98400.91;;;15.39;nan
63694;BME280;49839;51.798;10.954;2023-09-19T05:18:58;98401.34;;;15.44;nan
63694;BME280;49839;51.798;10.954;2023-09-19T05:21:28;98398.25;;;15.39;nan
63694;BME280;49839;51.798;10.954;2023-09-19T05:23:56;98401.88;;;15.38;nan
63694;BME280;49839;51.798;10.954;2023-09-19T05:26:24;98394.34;;;15.43;nan
63694;BME280;49839;51.798;10.954;2023-09-19T05:28:53;98411.38;;;15.62;nan
63694;BME280;49839;51.798;10.954;2023-09-19T05:31:21;98405.16;;;15.82;nan
63694;BME280;49839;51.798;10.954;2023-09-19T05:33:51;98408.03;;;16.00;nan
63694;BME280;49839;51.798;10.954;2023-09-19T05:36:21;98408.03;;;16.10;nan
63694;BME280;49839;51.798;10.954;2023-09-19T05:38:48;98408.47;;;16.05;nan
63694;BME280;49839;51.798;10.954;2023-09-19T05:41:17;98418.81;;;15.98;nan
63694;BME280;49839;51.798;10.954;2023-09-19T05:43:45;98412.34;;;15.91;nan
63694;BME280;49839;51.798;10.954;2023-09-19T05:46:14;98418.06;;;15.87;nan
63694;BME280;49839;51.798;10.954;2023-09-19T05:48:43;98420.97;;;15.84;nan
63694;BME280;49839;51.798;10.954;2023-09-19T05:51:14;98419.28;;;15.83;nan
63694;BME280;49839;51.798;10.954;2023-09-19T05:53:43;98425.03;;;15.78;nan
63694;BME280;49839;51.798;10.954;2023-09-19T05:56:13;98420.09;;;15.74;nan
63694;BME280;49839;51.798;10.954;2023-09-19T05:58:41;98424.72;;;15.72;nan
63694;BME280;49839;51.798;10.954;2023-09-19T06:01:10;98426.41;;;15.73;nan
63694;BME280;49839;51.798;10.954;2023-09-19T06:03:40;98437.56;;;15.66;nan
63694;BME280;49839;51.798;10.954;2023-09-19T06:06:08;98446.59;;;15.64;nan
63694;BME280;49839;51.798;10.954;2023-09-19T06:08:35;98455.56;;;15.63;nan
63694;BME280;49839;51.798;10.954;2023-09-19T06:11:03;98445.03;;;15.61;nan
63694;BME280;49839;51.798;10.954;2023-09-19T06:13:35;98458.84;;;15.55;nan
63694;BME280;49839;51.798;10.954;2023-09-19T06:16:06;98467.50;;;15.57;nan
63694;BME280;49839;51.798;10.954;2023-09-19T06:18:33;98475.03;;;15.52;nan
63694;BME280;49839;51.798;10.954;2023-09-19T06:21:02;98467.09;;;15.52;nan
63694;BME280;49839;51.798;10.954;2023-09-19T06:23:34;98482.88;;;15.54;nan
63694;BME280;49839;51.798;10.954;2023-09-19T06:26:02;98489.72;;;15.56;nan
63694;BME280;49839;51.798;10.954;2023-09-19T06:28:33;98487.06;;;15.56;nan
63694;BME280;49839;51.798;10.954;2023-09-19T06:31:02;98502.38;;;15.64;nan
63694;BME280;49839;51.798;10.954;2023-09-19T06:33:29;98495.38;;;15.63;nan
63694;BME280;49839;51.798;10.954;2023-09-19T06:35:58;98510.66;;;15.70;nan
63694;BME280;49839;51.798;10.954;2023-09-19T06:38:28;98511.25;;;15.74;nan
63694;BME280;49839;51.798;10.954;2023-09-19T06:40:55;98518.84;;;15.79;nan
63694;BME280;49839;51.798;10.954;2023-09-19T06:43:23;98509.75;;;15.81;nan
63694;BME280;49839;51.798;10.954;2023-09-19T06:45:51;98522.38;;;15.89;nan
63694;BME280;49839;51.798;10.954;2023-09-19T06:48:21;98517.78;;;15.91;nan
63694;BME280;49839;51.798;10.954;2023-09-19T06:50:50;98521.31;;;16.01;nan
63694;BME280;49839;51.798;10.954;2023-09-19T06:53:18;98520.63;;;15.99;nan
63694;BME280;49839;51.798;10.954;2023-09-19T06:55:47;98519.25;;;16.05;nan
63694;BME280;49839;51.798;10.954;2023-09-19T06:58:15;98523.97;;;16.01;nan
63694;BME280;49839;51.798;10.954;2023-09-19T07:00:43;98533.25;;;16.07;nan
63694;BME280;49839;51.798;10.954;2023-09-19T07:03:13;98536.66;;;16.18;nan
63694;BME280;49839;51.798;10.954;2023-09-19T07:05:42;98548.97;;;16.19;nan
63694;BME280;49839;51.798;10.954;2023-09-19T07:08:10;98549.13;;;16.28;nan
63694;BME280;49839;51.798;10.954;2023-09-19T07:10:39;98549.72;;;16.31;nan
63694;BME280;49839;51.798;10.954;2023-09-19T07:13:09;98554.50;;;16.37;nan
63694;BME280;49839;51.798;10.954;2023-09-19T07:15:38;98549.88;;;16.39;nan
63694;BME280;49839;51.798;10.954;2023-09-19T07:18:13;98563.47;;;16.36;nan
63694;BME280;49839;51.798;10.954;2023-09-19T07:20:43;98569.38;;;16.49;nan
63694;BME280;49839;51.798;10.954;2023-09-19T07:23:15;98565.91;;;16.49;nan
63694;BME280;49839;51.798;10.954;2023-09-19T07:25:44;98568.09;;;16.44;nan
63694;BME280;49839;51.798;10.954;2023-09-19T07:28:14;98572.44;;;16.45;nan
63694;BME280;49839;51.798;10.954;2023-09-19T07:30:42;98551.78;;;16.28;nan
63694;BME280;49839;51.798;10.954;2023-09-19T07:33:10;98563.81;;;16.22;nan
63694;BME280;49839;51.798;10.954;2023-09-19T07:35:39;98566.38;;;16.33;nan
63694;BME280;49839;51.798;10.954;2023-09-19T07:38:07;98574.97;;;16.46;nan
63694;BME280;49839;51.798;10.954;2023-09-19T07:40:38;98584.28;;;16.62;nan
63694;BME280;49839;51.798;10.954;2023-09-19T07:43:06;98578.31;;;16.79;nan
63694;BME280;49839;51.798;10.954;2023-09-19T07:45:36;98576.81;;;16.96;nan
63694;BME280;49839;51.798;10.954;2023-09-19T07:48:04;98571.66;;;17.04;nan
63694;BME280;49839;51.798;10.954;2023-09-19T07:50:33;98573.34;;;17.24;nan
63694;BME280;49839;51.798;10.954;2023-09-19T07:53:03;98572.94;;;17.48;nan
63694;BME280;49839;51.798;10.954;2023-09-19T07:55:31;98570.41;;;17.76;nan
63694;BME280;49839;51.798;10.954;2023-09-19T07:58:00;98577.22;;;18.17;nan
63694;BME280;49839;51.798;10.954;2023-09-19T08:00:30;98566.06;;;18.69;nan
63694;BME280;49839;51.798;10.954;2023-09-19T08:03:00;98577.03;;;19.11;nan
63694;BME280;49839;51.798;10.954;2023-09-19T08:05:34;98574.78;;;19.34;nan
63694;BME280;49839;51.798;10.954;2023-09-19T08:08:03;98575.63;;;19.34;nan
63694;BME280;49839;51.798;10.954;2023-09-19T08:10:33;98585.38;;;19.43;nan
63694;BME280;49839;51.798;10.954;2023-09-19T08:13:02;98587.81;;;19.90;nan
63694;BME280;49839;51.798;10.954;2023-09-19T08:15:30;98583.44;;;19.89;nan
63694;BME280;49839;51.798;10.954;2023-09-19T08:17:59;98580.22;;;19.60;nan
63694;BME280;49839;51.798;10.954;2023-09-19T08:20:28;98581.50;;;19.20;nan
63694;BME280;49839;51.798;10.954;2023-09-19T08:22:56;98596.34;;;19.05;nan
63694;BME280;49839;51.798;10.954;2023-09-19T08:25:24;98591.19;;;18.76;nan
63694;BME280;49839;51.798;10.954;2023-09-19T08:27:52;98605.66;;;18.73;nan
63694;BME280;49839;51.798;10.954;2023-09-19T08:30:21;98602.00;;;18.64;nan
63694;BME280;49839;51.798;10.954;2023-09-19T08:32:50;98602.59;;;18.68;nan
63694;BME280;49839;51.798;10.954;2023-09-19T08:35:19;98605.53;;;18.75;nan
63694;BME280;49839;51.798;10.954;2023-09-19T08:37:47;98615.16;;;18.38;nan
63694;BME280;49839;51.798;10.954;2023-09-19T08:40:15;98610.69;;;18.39;nan
63694;BME280;49839;51.798;10.954;2023-09-19T08:42:49;98610.72;;;18.29;nan
63694;BME280;49839;51.798;10.954;2023-09-19T08:45:17;98621.44;;;18.00;nan
63694;BME280;49839;51.798;10.954;2023-09-19T08:47:46;98617.50;;;18.04;nan
63694;BME280;49839;51.798;10.954;2023-09-19T08:50:26;98603.72;;;18.09;nan
63694;BME280;49839;51.798;10.954;2023-09-19T08:52:55;98606.66;;;18.25;nan
63694;BME280;49839;51.798;10.954;2023-09-19T08:55:26;98597.97;;;18.23;nan
63694;BME280;49839;51.798;10.954;2023-09-19T08:57:59;98606.75;;;18.33;nan
63694;BME280;49839;51.798;10.954;2023-09-19T09:00:28;98602.06;;;18.55;nan
63694;BME280;49839;51.798;10.954;2023-09-19T09:02:56;98603.28;;;18.60;nan
63694;BME280;49839;51.798;10.954;2023-09-19T09:05:27;98610.44;;;18.70;nan
63694;BME280;49839;51.798;10.954;2023-09-19T09:07:56;98608.59;;;18.98;nan
63694;BME280;49839;51.798;10.954;2023-09-19T09:10:26;98606.25;;;19.12;nan
63694;BME280;49839;51.798;10.954;2023-09-19T09:12:54;98615.69;;;19.34;nan
63694;BME280;49839;51.798;10.954;2023-09-19T09:15:22;98613.84;;;19.35;nan
63694;BME280;49839;51.798;10.954;2023-09-19T09:17:51;98598.44;;;19.29;nan
63694;BME280;49839;51.798;10.954;2023-09-19T09:20:20;98612.03;;;19.35;nan
63694;BME280;49839;51.798;10.954;2023-09-19T09:22:53;98609.53;;;19.52;nan
63694;BME280;49839;51.798;10.954;2023-09-19T09:25:22;98615.97;;;19.59;nan
63694;BME280;49839;51.798;10.954;2023-09-19T09:28:01;98610.03;;;19.55;nan
63694;BME280;49839;51.798;10.954;2023-09-19T09:30:36;98618.31;;;19.80;nan
63694;BME280;49839;51.798;10.954;2023-09-19T09:33:11;98608.44;;;19.98;nan
63694;BME280;49839;51.798;10.954;2023-09-19T09:35:48;98613.84;;;20.32;nan
63694;BME280;49839;51.798;10.954;2023-09-19T09:38:20;98603.25;;;20.82;nan
63694;BME280;49839;51.798;10.954;2023-09-19T09:40:53;98617.31;;;20.85;nan
63694;BME280;49839;51.798;10.954;2023-09-19T09:43:28;98612.28;;;20.81;nan
63694;BME280;49839;51.798;10.954;2023-09-19T09:46:07;98615.53;;;20.67;nan
63694;BME280;49839;51.798;10.954;2023-09-19T09:48:37;98619.63;;;20.45;nan
63694;BME280;49839;51.798;10.954;2023-09-19T09:51:05;98625.22;;;20.60;nan
63694;BME280;49839;51.798;10.954;2023-09-19T09:53:35;98611.84;;;20.34;nan
63694;BME280;49839;51.798;10.954;2023-09-19T09:56:05;98621.03;;;20.58;nan
63694;BME280;49839;51.798;10.954;2023-09-19T09:58:33;98618.50;;;20.90;nan
63694;BME280;49839;51.798;10.954;2023-09-19T10:01:05;98613.53;;;21.03;nan
63694;BME280;49839;51.798;10.954;2023-09-19T10:03:38;98615.19;;;20.96;nan
63694;BME280;49839;51.798;10.954;2023-09-19T10:06:11;98607.34;;;21.11;nan
63694;BME280;49839;51.798;10.954;2023-09-19T10:09:02;98618.69;;;21.39;nan
63694;BME280;49839;51.798;10.954;2023-09-19T10:11:42;98613.81;;;21.43;nan
63694;BME280;49839;51.798;10.954;2023-09-19T10:14:11;98611.03;;;21.77;nan
63694;BME280;49839;51.798;10.954;2023-09-19T10:16:40;98605.97;;;21.82;nan
63694;BME280;49839;51.798;10.954;2023-09-19T10:19:08;98616.53;;;21.92;nan
63694;BME280;49839;51.798;10.954;2023-09-19T10:21:37;98610.03;;;22.10;nan
63694;BME280;49839;51.798;10.954;2023-09-19T10:24:08;98606.94;;;22.46;nan
63694;BME280;49839;51.798;10.954;2023-09-19T10:26:36;98610.19;;;22.17;nan
63694;BME280;49839;51.798;10.954;2023-09-19T10:29:06;98606.00;;;22.23;nan
63694;BME280;49839;51.798;10.954;2023-09-19T10:31:37;98601.44;;;22.07;nan
63694;BME280;49839;51.798;10.954;2023-09-19T10:34:08;98614.38;;;22.20;nan
63694;BME280;49839;51.798;10.954;2023-09-19T10:36:37;98615.03;;;21.97;nan
63694;BME280;49839;51.798;10.954;2023-09-19T10:39:11;98610.66;;;21.88;nan
63694;BME280;49839;51.798;10.954;2023-09-19T10:41:40;98619.38;;;21.66;nan
63694;BME280;49839;51.798;10.954;2023-09-19T10:44:11;98613.16;;;21.32;nan
63694;BME280;49839;51.798;10.954;2023-09-19T10:46:40;98618.56;;;21.73;nan
63694;BME280;49839;51.798;10.954;2023-09-19T10:49:10;98614.38;;;22.11;nan
63694;BME280;49839;51.798;10.954;2023-09-19T10:51:41;98619.72;;;22.28;nan
63694;BME280;49839;51.798;10.954;2023-09-19T10:54:13;98619.19;;;22.40;nan
63694;BME280;49839;51.798;10.954;2023-09-19T10:56:46;98614.78;;;22.56;nan
63694;BME280;49839;51.798;10.954;2023-09-19T10:59:17;98612.50;;;22.36;nan
63694;BME280;49839;51.798;10.954;2023-09-19T11:01:46;98618.72;;;22.29;nan
63694;BME280;49839;51.798;10.954;2023-09-19T11:04:23;98633.66;;;22.15;nan
63694;BME280;49839;51.798;10.954;2023-09-19T11:07:05;98632.13;;;21.72;nan
63694;BME280;49839;51.798;10.954;2023-09-19T11:09:47;98627.09;;;21.60;nan
63694;BME280;49839;51.798;10.954;2023-09-19T11:12:48;98630.72;;;21.35;nan
63694;BME280;49839;51.798;10.954;2023-09-19T11:18:53;98615.63;;;21.26;nan
63694;BME280;49839;51.798;10.954;2023-09-19T11:21:55;98606.59;;;21.35;nan
63694;BME280;49839;51.798;10.954;2023-09-19T11:24:30;98610.31;;;21.42;nan
63694;BME280;49839;51.798;10.954;2023-09-19T11:27:16;98599.38;;;21.27;nan
63694;BME280;49839;51.798;10.954;2023-09-19T11:29:45;98593.94;;;21.03;nan
63694;BME280;49839;51.798;10.954;2023-09-19T11:32:13;98599.03;;;20.80;nan
63694;BME280;49839;51.798;10.954;2023-09-19T11:34:46;98586.31;;;20.74;nan
63694;BME280;49839;51.798;10.954;2023-09-19T11:40:34;98589.38;;;20.87;nan
63694;BME280;49839;51.798;10.954;2023-09-19T11:43:31;98588.38;;;20.88;nan
63694;BME280;49839;51.798;10.954;2023-09-19T11:46:21;98588.22;;;20.90;nan
63694;BME280;49839;51.798;10.954;2023-09-19T11:48:49;98587.03;;;20.50;nan
63694;BME280;49839;51.798;10.954;2023-09-19T11:51:18;98596.06;;;20.83;nan
63694;BME280;49839;51.798;10.954;2023-09-19T11:53:55;98595.78;;;20.94;nan
63694;BME280;49839;51.798;10.954;2023-09-19T11:56:24;98596.59;;;20.95;nan
63694;BME280;49839;51.798;10.954;2023-09-19T11:58:56;98598.59;;;20.93;nan
63694;BME280;49839;51.798;10.954;2023-09-19T12:01:27;98588.75;;;21.01;nan
63694;BME280;49839;51.798;10.954;2023-09-19T12:03:57;98597.94;;;20.99;nan
63694;BME280;49839;51.798;10.954;2023-09-19T12:06:27;98609.56;;;21.24;nan
63694;BME280;49839;51.798;10.954;2023-09-19T12:08:56;98616.28;;;21.28;nan
63694;BME280;49839;51.798;10.954;2023-09-19T12:11:29;98603.28;;;20.91;nan
63694;BME280;49839;51.798;10.954;2023-09-19T12:14:01;98606.47;;;20.94;nan
63694;BME280;49839;51.798;10.954;2023-09-19T12:16:30;98606.13;;;20.97;nan
63694;BME280;49839;51.798;10.954;2023-09-19T12:19:17;98608.13;;;20.87;nan
63694;BME280;49839;51.798;10.954;2023-09-19T12:21:55;98600.75;;;20.89;nan
63694;BME280;49839;51.798;10.954;2023-09-19T12:24:25;98601.31;;;21.01;nan
63694;BME280;49839;51.798;10.954;2023-09-19T12:27:00;98601.16;;;21.02;nan
63694;BME280;49839;51.798;10.954;2023-09-19T12:29:32;98608.16;;;20.95;nan
63694;BME280;49839;51.798;10.954;2023-09-19T12:32:09;98606.16;;;21.05;nan
63694;BME280;49839;51.798;10.954;2023-09-19T12:34:37;98614.06;;;21.07;nan
63694;BME280;49839;51.798;10.954;2023-09-19T12:37:10;98605.09;;;20.82;nan
63694;BME280;49839;51.798;10.954;2023-09-19T12:39:48;98602.06;;;20.85;nan
63694;BME280;49839;51.798;10.954;2023-09-19T12:42:19;98596.50;;;20.70;nan
63694;BME280;49839;51.798;10.954;2023-09-19T12:44:51;98592.47;;;20.66;nan
63694;BME280;49839;51.798;10.954;2023-09-19T12:47:22;98590.31;;;20.70;nan
63694;BME280;49839;51.798;10.954;2023-09-19T12:50:06;98593.53;;;20.81;nan
63694;BME280;49839;51.798;10.954;2023-09-19T12:52:41;98582.22;;;20.96;nan
63694;BME280;49839;51.798;10.954;2023-09-19T12:55:19;98579.84;;;20.93;nan
63694;BME280;49839;51.798;10.954;2023-09-19T12:57:58;98585.69;;;20.88;nan
63694;BME280;49839;51.798;10.954;2023-09-19T13:00:35;98594.75;;;20.95;nan
63694;BME280;49839;51.798;10.954;2023-09-19T13:03:17;98590.09;;;21.05;nan
63694;BME280;49839;51.798;10.954;2023-09-19T13:05:50;98582.22;;;21.04;nan
63694;BME280;49839;51.798;10.954;2023-09-19T13:08:20;98585.09;;;21.10;nan
63694;BME280;49839;51.798;10.954;2023-09-19T13:11:07;98590.78;;;21.07;nan
63694;BME280;49839;51.798;10.954;2023-09-19T13:13:38;98580.19;;;20.98;nan
63694;BME280;49839;51.798;10.954;2023-09-19T13:16:08;98587.44;;;20.63;nan
63694;BME280;49839;51.798;10.954;2023-09-19T13:18:43;98587.94;;;20.67;nan
63694;BME280;49839;51.798;10.954;2023-09-19T13:21:12;98577.44;;;20.73;nan
63694;BME280;49839;51.798;10.954;2023-09-19T13:23:50;98574.06;;;20.63;nan
63694;BME280;49839;51.798;10.954;2023-09-19T13:26:18;98584.13;;;20.69;nan
63694;BME280;49839;51.798;10.954;2023-09-19T13:28:46;98589.09;;;20.56;nan
63694;BME280;49839;51.798;10.954;2023-09-19T13:31:17;98572.38;;;20.62;nan
63694;BME280;49839;51.798;10.954;2023-09-19T13:33:46;98580.75;;;20.67;nan
63694;BME280;49839;51.798;10.954;2023-09-19T13:36:14;98574.88;;;20.55;nan